Time;durP1;ratioP1;P1;durP2;ratioP2;P2;SDS_P1;SDS_P2;PMS_P1;PMS_P2;Temp;Humidity;BMP_temperature;BMP_pressure;BME280_temperature;BME280_humidity;BME280_pressure;Samples;Min_cycle;Max_cycle;Signal;HPM_P1;HPM_P2
2022/01/06 00:01:05;;;;;;;15.57;4.73;;;4.40;99.90;;;;;;5038321;28;20241;-62
2022/01/06 00:03:34;;;;;;;12.17;4.60;;;4.40;99.90;;;;;;5041205;28;20228;-62
2022/01/06 00:06:06;;;;;;;10.57;4.20;;;4.40;99.90;;;;;;5037245;28;20197;-62
2022/01/06 00:08:36;;;;;;;22.97;4.60;;;4.30;99.90;;;;;;5044730;28;20250;-61
2022/01/06 00:11:09;;;;;;;10.47;4.40;;;4.20;99.90;;;;;;5041826;28;20216;-62
2022/01/06 00:13:51;;;;;;;11.70;4.20;;;4.20;99.90;;;;;;5048409;28;20259;-62
2022/01/06 00:16:30;;;;;;;12.37;4.47;;;4.10;99.90;;;;;;5048464;28;21090;-62
2022/01/06 00:24:31;;;;;;;21.80;8.70;;;3.80;99.90;;;;;;5047014;28;20275;-62
2022/01/06 00:26:59;;;;;;;23.77;8.50;;;3.60;99.90;;;;;;5051726;28;20209;-62
2022/01/06 00:29:28;;;;;;;13.80;6.17;;;3.50;99.90;;;;;;5041977;28;20200;-62
2022/01/06 00:31:57;;;;;;;23.37;4.87;;;3.40;99.90;;;;;;5049457;28;20208;-62
2022/01/06 00:34:26;;;;;;;23.63;4.53;;;3.50;99.90;;;;;;5049074;28;20232;-62
2022/01/06 00:36:54;;;;;;;16.17;4.60;;;3.40;99.90;;;;;;5044965;28;20728;-62
2022/01/06 00:39:27;;;;;;;19.97;6.07;;;3.40;99.90;;;;;;5049564;28;20199;-62
2022/01/06 00:41:58;;;;;;;25.00;5.50;;;3.40;99.90;;;;;;5046702;28;21192;-62
2022/01/06 00:44:28;;;;;;;21.90;4.73;;;3.20;99.90;;;;;;5043525;28;20199;-62
2022/01/06 00:46:56;;;;;;;23.87;5.10;;;3.20;99.90;;;;;;5047578;28;20259;-61
2022/01/06 00:49:25;;;;;;;23.17;5.03;;;3.10;99.90;;;;;;5050109;28;20266;-62
2022/01/06 00:51:53;;;;;;;15.20;4.67;;;3.00;99.90;;;;;;5048094;28;20287;-62
2022/01/06 00:54:21;;;;;;;17.77;3.90;;;3.00;99.90;;;;;;5047004;28;20235;-62
2022/01/06 00:56:50;;;;;;;15.33;3.47;;;2.90;99.90;;;;;;5051184;28;20228;-62
2022/01/06 00:59:18;;;;;;;20.63;3.60;;;2.90;99.90;;;;;;5046037;28;20217;-62
2022/01/06 01:01:48;;;;;;;19.97;4.10;;;2.80;99.90;;;;;;5046966;28;20268;-61
2022/01/06 01:04:55;;;;;;;13.80;3.40;;;2.70;99.90;;;;;;5045376;28;20255;-62
2022/01/06 01:08:01;;;;;;;12.77;3.17;;;2.60;99.90;;;;;;5043752;28;20230;-61
2022/01/06 01:10:30;;;;;;;12.37;3.17;;;2.60;99.90;;;;;;5043417;28;20240;-62
2022/01/06 01:12:58;;;;;;;18.50;3.60;;;2.50;99.90;;;;;;5048753;28;20254;-62
2022/01/06 01:15:27;;;;;;;18.83;3.40;;;2.50;99.90;;;;;;5057332;28;20248;-62
2022/01/06 01:18:05;;;;;;;20.03;4.07;;;2.50;99.90;;;;;;5048225;28;20211;-62
2022/01/06 01:20:34;;;;;;;21.47;3.90;;;2.50;99.90;;;;;;5048425;28;20224;-62
2022/01/06 01:23:03;;;;;;;21.13;4.40;;;2.50;99.90;;;;;;5037596;28;20228;-62
2022/01/06 01:25:31;;;;;;;16.20;4.30;;;2.50;99.90;;;;;;5048271;28;20277;-61
2022/01/06 01:27:59;;;;;;;19.03;4.83;;;2.50;99.90;;;;;;5049936;28;20254;-62
2022/01/06 01:30:32;;;;;;;28.17;4.97;;;2.50;99.90;;;;;;5040363;28;20244;-62
2022/01/06 01:33:01;;;;;;;18.47;4.00;;;2.50;99.90;;;;;;5048753;28;20201;-62
2022/01/06 01:35:32;;;;;;;29.67;4.40;;;2.60;99.90;;;;;;5043184;28;20319;-62
2022/01/06 01:38:00;;;;;;;20.27;4.20;;;2.50;99.90;;;;;;5047985;28;20244;-62
2022/01/06 01:40:29;;;;;;;32.83;4.60;;;2.50;99.90;;;;;;5044423;28;20291;-62
2022/01/06 01:42:57;;;;;;;21.13;4.17;;;2.60;99.90;;;;;;5048467;28;20228;-62
2022/01/06 01:45:29;;;;;;;34.13;4.97;;;2.60;99.90;;;;;;5063023;28;20229;-61
2022/01/06 01:48:02;;;;;;;20.23;4.60;;;2.70;99.90;;;;;;5044897;28;20233;-62
2022/01/06 01:50:33;;;;;;;16.83;4.43;;;2.70;99.90;;;;;;5046482;28;20311;-62
2022/01/06 01:53:01;;;;;;;28.00;5.17;;;2.60;99.90;;;;;;5047127;28;20271;-62
2022/01/06 01:55:32;;;;;;;25.63;4.60;;;2.60;99.90;;;;;;5047019;28;20205;-62
2022/01/06 01:58:01;;;;;;;23.17;4.40;;;2.60;99.90;;;;;;5046495;28;20204;-62
2022/01/06 02:00:31;;;;;;;23.43;4.10;;;2.50;99.90;;;;;;5044812;28;20192;-62
2022/01/06 02:03:00;;;;;;;30.40;4.97;;;2.50;99.90;;;;;;5044002;28;20197;-62
2022/01/06 02:05:29;;;;;;;16.43;4.83;;;2.50;99.90;;;;;;5042904;28;20194;-62
2022/01/06 02:07:59;;;;;;;19.97;4.27;;;2.50;99.90;;;;;;5044840;28;20258;-62
2022/01/06 02:10:29;;;;;;;28.70;3.97;;;2.50;99.90;;;;;;5044431;28;20244;-62
2022/01/06 02:13:00;;;;;;;27.27;4.30;;;2.50;99.90;;;;;;5047861;28;20209;-62
2022/01/06 02:15:29;;;;;;;21.43;4.67;;;2.50;99.90;;;;;;5032645;28;20258;-62
2022/01/06 02:17:57;;;;;;;26.00;4.13;;;2.50;99.90;;;;;;5049246;28;20189;-62
2022/01/06 02:20:27;;;;;;;29.67;5.10;;;2.60;99.90;;;;;;5044933;28;20760;-62
2022/01/06 02:22:56;;;;;;;22.60;4.47;;;2.60;99.90;;;;;;5047463;28;20272;-61
2022/01/06 02:25:29;;;;;;;22.70;4.10;;;2.60;99.90;;;;;;5044008;28;20726;-62
2022/01/06 02:28:00;;;;;;;29.33;4.40;;;2.60;99.90;;;;;;5048089;28;20225;-62
2022/01/06 02:30:31;;;;;;;25.33;5.00;;;2.60;99.90;;;;;;5046496;28;20212;-62
2022/01/06 02:33:01;;;;;;;21.23;4.20;;;2.50;99.90;;;;;;5046942;28;20242;-62
2022/01/06 02:35:32;;;;;;;19.67;4.33;;;2.50;99.90;;;;;;5043298;28;20278;-62
2022/01/06 02:38:00;;;;;;;18.13;4.37;;;2.40;99.90;;;;;;5049241;28;20626;-62
2022/01/06 02:40:29;;;;;;;22.30;4.63;;;2.50;99.90;;;;;;5045139;28;20240;-62
2022/01/06 02:43:02;;;;;;;35.83;4.17;;;2.50;99.90;;;;;;5046717;28;20243;-62
2022/01/06 02:45:31;;;;;;;27.20;4.70;;;2.40;99.90;;;;;;5036430;28;20289;-61
2022/01/06 02:48:08;;;;;;;21.60;4.70;;;2.50;99.90;;;;;;5046491;28;20207;-62
2022/01/06 02:50:39;;;;;;;36.93;4.60;;;2.60;99.90;;;;;;5044675;28;20627;-61
2022/01/06 02:53:08;;;;;;;23.27;4.57;;;2.70;99.90;;;;;;5045501;28;20199;-62
2022/01/06 02:55:39;;;;;;;38.60;4.90;;;2.80;99.90;;;;;;5042816;28;20299;-62
2022/01/06 02:58:07;;;;;;;25.73;4.70;;;2.80;99.90;;;;;;5048594;28;20283;-61
2022/01/06 03:00:36;;;;;;;21.40;4.33;;;2.90;99.90;;;;;;5044296;28;20191;-62
2022/01/06 03:03:05;;;;;;;20.50;4.90;;;2.90;99.90;;;;;;5042544;28;20227;-62
2022/01/06 03:05:33;;;;;;;20.33;4.50;;;3.00;99.90;;;;;;5044573;28;20639;-62
2022/01/06 03:08:03;;;;;;;32.77;5.30;;;3.00;99.90;;;;;;5048248;28;20201;-61
2022/01/06 03:10:36;;;;;;;24.87;5.03;;;3.00;99.90;;;;;;5045463;28;20652;-62
2022/01/06 03:13:06;;;;;;;25.73;5.50;;;3.00;99.90;;;;;;5044539;28;20654;-62
2022/01/06 03:15:35;;;;;;;27.60;6.03;;;2.90;99.90;;;;;;5045745;28;20242;-61
2022/01/06 03:18:03;;;;;;;21.73;4.77;;;2.90;99.90;;;;;;5048519;28;20250;-61
2022/01/06 03:20:33;;;;;;;24.30;5.33;;;2.90;99.90;;;;;;5046042;28;20291;-62
2022/01/06 03:23:03;;;;;;;22.83;5.87;;;2.90;99.90;;;;;;5047652;28;20337;-62
2022/01/06 03:25:31;;;;;;;24.50;5.00;;;2.90;99.90;;;;;;5047371;28;20271;-62
2022/01/06 03:28:00;;;;;;;24.47;4.67;;;2.90;99.90;;;;;;5042871;28;20707;-61
2022/01/06 03:30:28;;;;;;;20.30;4.73;;;2.90;99.90;;;;;;5038649;28;20315;-62
2022/01/06 03:32:57;;;;;;;22.00;5.07;;;2.90;99.90;;;;;;5043664;28;20274;-63
2022/01/06 03:35:26;;;;;;;26.97;4.70;;;2.90;99.90;;;;;;5045475;28;20264;-62
2022/01/06 03:37:55;;;;;;;19.10;4.00;;;2.90;99.90;;;;;;5037926;28;20596;-61
2022/01/06 03:40:25;;;;;;;22.90;4.40;;;2.90;99.90;;;;;;5044405;28;20279;-61
2022/01/06 03:42:53;;;;;;;36.33;4.93;;;2.90;99.90;;;;;;5044819;28;20264;-62
2022/01/06 03:45:21;;;;;;;25.27;4.30;;;2.90;99.90;;;;;;5042371;28;20267;-62
2022/01/06 03:47:50;;;;;;;23.27;4.67;;;2.90;99.90;;;;;;5047224;28;22576;-62
2022/01/06 03:50:18;;;;;;;21.40;4.40;;;2.90;99.90;;;;;;5045642;28;20560;-61
2022/01/06 03:52:47;;;;;;;27.23;5.00;;;2.90;99.90;;;;;;5043532;28;20255;-61
2022/01/06 03:55:18;;;;;;;19.30;4.53;;;2.90;99.90;;;;;;5044410;28;20207;-62
2022/01/06 03:57:49;;;;;;;26.60;5.00;;;2.90;99.90;;;;;;5042781;28;20201;-62
2022/01/06 04:00:19;;;;;;;18.60;4.40;;;3.00;99.90;;;;;;5047574;28;20212;-62
2022/01/06 04:02:49;;;;;;;27.87;4.70;;;2.90;99.90;;;;;;5042514;28;20199;-62
2022/01/06 04:05:17;;;;;;;20.37;4.63;;;2.90;99.90;;;;;;5045389;28;20192;-62
2022/01/06 04:07:47;;;;;;;33.07;4.77;;;2.90;99.90;;;;;;5047938;28;20299;-62
2022/01/06 04:10:15;;;;;;;19.93;4.03;;;2.80;99.90;;;;;;5045510;28;20203;-62
2022/01/06 04:12:43;;;;;;;30.07;4.67;;;2.80;99.90;;;;;;5045138;28;20212;-62
2022/01/06 04:15:14;;;;;;;27.20;4.63;;;2.80;99.90;;;;;;5042810;28;20185;-61
2022/01/06 04:17:44;;;;;;;25.00;5.00;;;2.70;99.90;;;;;;5040011;28;20201;-62
2022/01/06 04:20:13;;;;;;;28.73;4.90;;;2.70;99.90;;;;;;5044978;28;20221;-62
2022/01/06 04:22:42;;;;;;;28.50;5.07;;;2.70;99.90;;;;;;5035996;28;20275;-61
2022/01/06 04:25:12;;;;;;;20.17;4.47;;;2.70;99.90;;;;;;5046322;28;20200;-62
2022/01/06 04:27:41;;;;;;;26.57;5.40;;;2.70;99.90;;;;;;5047649;28;20258;-62
2022/01/06 04:30:11;;;;;;;28.43;5.57;;;2.60;99.90;;;;;;5038177;28;20254;-61
2022/01/06 04:32:41;;;;;;;22.73;4.90;;;2.60;99.90;;;;;;5058405;28;20267;-61
2022/01/06 04:35:12;;;;;;;25.17;5.03;;;2.70;99.90;;;;;;5045656;28;20257;-61
2022/01/06 04:37:40;;;;;;;24.80;5.20;;;2.70;99.90;;;;;;5043875;28;20197;-62
2022/01/06 04:40:10;;;;;;;30.17;5.23;;;2.70;99.90;;;;;;5045450;28;20280;-62
2022/01/06 04:42:38;;;;;;;25.27;5.67;;;2.70;99.90;;;;;;5042668;28;20256;-62
2022/01/06 04:45:08;;;;;;;22.47;5.40;;;2.70;99.90;;;;;;5042172;28;20320;-62
2022/01/06 04:47:37;;;;;;;28.17;5.10;;;2.70;99.90;;;;;;5042551;28;20221;-61
2022/01/06 04:50:07;;;;;;;27.73;5.07;;;2.70;99.90;;;;;;5046290;28;20200;-62
2022/01/06 04:52:36;;;;;;;25.97;5.60;;;2.70;99.90;;;;;;5041056;28;20619;-62
2022/01/06 04:55:05;;;;;;;22.63;5.23;;;2.70;99.90;;;;;;5046907;28;20258;-62
2022/01/06 04:57:33;;;;;;;16.90;4.30;;;2.70;99.90;;;;;;5043635;28;20287;-62
2022/01/06 05:00:02;;;;;;;18.67;5.03;;;2.70;99.90;;;;;;5048064;28;20246;-61
2022/01/06 05:02:31;;;;;;;23.43;5.17;;;2.80;99.90;;;;;;5045256;28;20268;-61
2022/01/06 05:04:59;;;;;;;19.20;4.97;;;2.80;99.90;;;;;;5050593;28;20276;-62
2022/01/06 05:07:29;;;;;;;21.73;5.33;;;2.90;99.90;;;;;;5046903;28;20225;-61
2022/01/06 05:09:57;;;;;;;20.23;4.93;;;2.90;99.90;;;;;;5051316;28;20747;-62
2022/01/06 05:12:25;;;;;;;23.03;5.43;;;2.90;99.90;;;;;;5046431;28;20299;-62
2022/01/06 05:14:54;;;;;;;29.27;5.93;;;3.00;99.90;;;;;;5049342;28;20188;-61
2022/01/06 05:17:22;;;;;;;25.57;5.53;;;3.00;99.90;;;;;;5048644;28;20196;-62
2022/01/06 05:19:50;;;;;;;22.40;5.20;;;3.00;99.90;;;;;;5050774;28;20205;-62
2022/01/06 05:22:19;;;;;;;20.23;4.87;;;3.10;99.90;;;;;;5044138;28;20731;-62
2022/01/06 05:24:49;;;;;;;29.50;5.40;;;3.10;99.90;;;;;;5047272;28;20255;-62
2022/01/06 05:27:17;;;;;;;13.17;4.80;;;3.10;99.90;;;;;;5048102;28;20284;-62
2022/01/06 05:29:45;;;;;;;20.03;5.10;;;3.10;99.90;;;;;;5046208;28;20196;-62
2022/01/06 05:32:14;;;;;;;16.23;4.30;;;3.10;99.90;;;;;;5046926;28;20262;-62
2022/01/06 05:34:42;;;;;;;21.30;4.70;;;3.10;99.90;;;;;;5048346;28;20258;-61
2022/01/06 05:37:10;;;;;;;22.93;4.40;;;3.10;99.90;;;;;;5045532;28;20201;-62
2022/01/06 05:39:39;;;;;;;21.27;4.70;;;3.10;99.90;;;;;;5048374;28;20235;-61
2022/01/06 05:42:13;;;;;;;17.37;4.87;;;3.10;99.90;;;;;;5045825;28;20184;-61
2022/01/06 05:44:42;;;;;;;23.47;4.93;;;3.00;99.90;;;;;;5048716;28;20659;-61
2022/01/06 05:47:10;;;;;;;16.13;4.50;;;3.10;99.90;;;;;;5048690;28;20209;-62
2022/01/06 05:49:39;;;;;;;16.73;4.33;;;3.10;99.90;;;;;;5048230;28;20254;-62
2022/01/06 05:52:07;;;;;;;23.33;4.57;;;3.10;99.90;;;;;;5044458;28;21454;-62
2022/01/06 05:54:36;;;;;;;25.03;5.87;;;3.10;99.90;;;;;;5045123;28;20713;-62
2022/01/06 05:57:11;;;;;;;25.97;5.33;;;3.10;99.90;;;;;;5044755;28;20193;-62
2022/01/06 05:59:42;;;;;;;25.50;5.67;;;3.10;99.90;;;;;;5048698;28;20193;-61
2022/01/06 06:02:11;;;;;;;23.57;5.37;;;3.20;99.90;;;;;;5044387;28;20280;-61
2022/01/06 06:04:40;;;;;;;13.53;4.80;;;3.20;99.90;;;;;;5049153;28;20193;-62
2022/01/06 06:07:08;;;;;;;19.03;4.93;;;3.20;99.90;;;;;;5042084;28;20283;-62
2022/01/06 06:09:37;;;;;;;14.73;4.87;;;3.20;99.90;;;;;;5047979;28;20216;-62
2022/01/06 06:12:06;;;;;;;16.83;5.43;;;3.20;99.90;;;;;;5046387;28;20197;-62
2022/01/06 06:14:36;;;;;;;19.10;7.13;;;3.30;99.90;;;;;;5048157;28;20248;-61
2022/01/06 06:17:05;;;;;;;22.90;7.07;;;3.30;99.90;;;;;;5062088;28;20209;-61
2022/01/06 06:19:34;;;;;;;39.73;11.70;;;3.30;99.90;;;;;;5047932;28;20232;-61
2022/01/06 06:22:02;;;;;;;47.00;12.50;;;3.30;99.90;;;;;;5044541;28;20288;-62
2022/01/06 06:24:31;;;;;;;40.17;12.47;;;3.30;99.90;;;;;;5045035;28;20608;-61
2022/01/06 06:27:00;;;;;;;23.87;8.70;;;3.30;99.90;;;;;;5042902;28;20209;-62
2022/01/06 06:29:28;;;;;;;17.87;5.53;;;3.30;99.90;;;;;;5043317;28;20197;-61
2022/01/06 06:31:58;;;;;;;24.87;4.70;;;3.30;99.90;;;;;;5044173;28;20275;-61
2022/01/06 06:34:26;;;;;;;20.27;4.83;;;3.30;99.90;;;;;;5046720;28;20248;-61
2022/01/06 06:36:55;;;;;;;18.83;5.30;;;3.40;99.90;;;;;;5048062;28;20264;-61
2022/01/06 06:39:23;;;;;;;22.53;5.63;;;3.40;99.90;;;;;;5046575;28;20280;-62
2022/01/06 06:41:52;;;;;;;23.93;6.13;;;3.40;99.90;;;;;;5046030;28;20287;-62
2022/01/06 06:44:20;;;;;;;29.47;8.17;;;3.40;99.90;;;;;;5047031;28;20193;-62
2022/01/06 06:46:48;;;;;;;23.60;8.00;;;3.40;99.90;;;;;;5044764;28;20235;-61
2022/01/06 06:49:18;;;;;;;16.87;6.27;;;3.30;99.90;;;;;;5039065;28;20464;-62
2022/01/06 06:51:46;;;;;;;25.57;6.13;;;3.30;99.90;;;;;;5044515;28;20240;-61
2022/01/06 06:54:17;;;;;;;16.20;6.10;;;3.30;99.90;;;;;;5038253;28;20225;-62
2022/01/06 06:56:46;;;;;;;34.73;9.23;;;3.30;99.90;;;;;;5047903;28;20235;-61
2022/01/06 06:59:14;;;;;;;34.53;10.53;;;3.30;99.90;;;;;;5047023;28;20205;-61
2022/01/06 07:01:43;;;;;;;41.03;14.17;;;3.30;99.90;;;;;;5042648;28;20228;-61
2022/01/06 07:04:11;;;;;;;24.03;8.00;;;3.30;99.90;;;;;;5044971;28;20193;-61
2022/01/06 07:06:58;;;;;;;28.70;7.20;;;3.30;99.90;;;;;;5043905;28;20193;-61
2022/01/06 07:09:26;;;;;;;29.17;7.97;;;3.30;99.90;;;;;;5041625;28;20793;-62
2022/01/06 07:11:54;;;;;;;24.90;7.30;;;3.30;99.90;;;;;;5047048;28;20247;-62
2022/01/06 07:14:23;;;;;;;23.60;6.83;;;3.20;99.90;;;;;;5043798;28;20573;-62
2022/01/06 07:16:54;;;;;;;29.70;7.37;;;3.20;99.90;;;;;;5046600;28;20198;-62
2022/01/06 07:19:22;;;;;;;26.60;6.87;;;3.20;99.90;;;;;;5046107;28;20204;-62
2022/01/06 07:21:50;;;;;;;33.57;9.07;;;3.20;99.90;;;;;;5045011;28;20262;-61
2022/01/06 07:24:20;;;;;;;36.03;11.30;;;3.20;99.90;;;;;;5047955;28;20220;-62
2022/01/06 07:26:49;;;;;;;42.03;10.47;;;3.20;99.90;;;;;;5046361;28;20213;-61
2022/01/06 07:29:18;;;;;;;32.07;7.93;;;3.30;99.90;;;;;;5046740;28;20201;-61
2022/01/06 07:31:46;;;;;;;32.20;8.97;;;3.30;99.90;;;;;;5041862;28;20303;-62
2022/01/06 07:34:15;;;;;;;30.40;8.90;;;3.30;99.90;;;;;;5040516;28;20475;-61
2022/01/06 07:36:45;;;;;;;27.77;7.50;;;3.30;99.90;;;;;;5047112;28;20279;-62
2022/01/06 07:39:14;;;;;;;21.67;6.87;;;3.30;99.90;;;;;;5045760;28;20232;-62
2022/01/06 07:41:46;;;;;;;14.87;5.73;;;3.30;99.90;;;;;;5045901;28;20196;-62
2022/01/06 07:44:15;;;;;;;21.50;5.77;;;3.30;99.90;;;;;;5039159;28;20658;-61
2022/01/06 07:46:45;;;;;;;21.70;5.87;;;3.30;99.90;;;;;;5046490;28;20199;-62
2022/01/06 07:49:14;;;;;;;19.73;5.83;;;3.30;99.90;;;;;;5046530;28;20611;-61
2022/01/06 07:51:42;;;;;;;27.30;5.90;;;3.30;99.90;;;;;;5045318;28;20733;-61
2022/01/06 07:54:11;;;;;;;24.27;6.37;;;3.30;99.90;;;;;;5041777;28;20285;-61
2022/01/06 07:56:39;;;;;;;23.53;6.33;;;3.30;99.90;;;;;;5044660;28;20227;-62
2022/01/06 07:59:09;;;;;;;23.30;6.00;;;3.30;99.90;;;;;;5059290;28;20193;-61
2022/01/06 08:01:38;;;;;;;32.47;6.70;;;3.30;99.90;;;;;;5045274;28;20272;-61
2022/01/06 08:04:08;;;;;;;21.77;7.33;;;3.30;99.90;;;;;;5032286;28;20255;-62
2022/01/06 08:06:36;;;;;;;27.07;7.30;;;3.30;99.90;;;;;;5036483;28;20768;-61
2022/01/06 08:09:04;;;;;;;26.07;8.13;;;3.40;99.90;;;;;;5040564;28;20221;-62
2022/01/06 08:11:33;;;;;;;24.23;8.50;;;3.40;99.90;;;;;;5040941;28;20656;-61
2022/01/06 08:14:01;;;;;;;20.83;8.07;;;3.40;99.90;;;;;;5044023;28;20213;-62
2022/01/06 08:16:31;;;;;;;31.17;10.03;;;3.40;99.90;;;;;;5042676;28;20213;-61
2022/01/06 08:18:59;;;;;;;29.27;10.80;;;3.40;99.90;;;;;;5045538;28;20205;-61
2022/01/06 08:21:27;;;;;;;32.43;9.07;;;3.40;99.90;;;;;;5037926;28;20608;-62
2022/01/06 08:23:55;;;;;;;25.00;9.17;;;3.40;99.90;;;;;;5046624;28;20279;-62
2022/01/06 08:26:24;;;;;;;27.93;8.17;;;3.50;99.90;;;;;;5038891;28;20200;-61
2022/01/06 08:28:52;;;;;;;29.40;9.10;;;3.50;99.90;;;;;;5027242;28;20288;-61
2022/01/06 08:31:21;;;;;;;24.63;8.27;;;3.50;99.90;;;;;;5038024;28;21628;-61
2022/01/06 08:33:50;;;;;;;28.13;7.70;;;3.50;99.90;;;;;;5041534;28;20200;-62
2022/01/06 08:36:19;;;;;;;13.47;6.87;;;3.50;99.90;;;;;;5050401;28;20231;-62
2022/01/06 08:38:47;;;;;;;22.03;7.43;;;3.50;99.90;;;;;;5045279;28;20477;-62
2022/01/06 08:41:16;;;;;;;25.93;7.07;;;3.50;99.90;;;;;;5048170;28;20192;-61
2022/01/06 08:43:46;;;;;;;32.33;7.17;;;3.50;99.90;;;;;;5048537;28;20197;-62
2022/01/06 08:46:15;;;;;;;24.17;6.13;;;3.60;99.90;;;;;;5043430;28;20251;-62
2022/01/06 08:48:44;;;;;;;20.87;6.80;;;3.60;99.90;;;;;;5047900;28;20279;-61
2022/01/06 08:51:13;;;;;;;20.63;5.50;;;3.60;99.90;;;;;;5045700;28;20212;-62
2022/01/06 08:53:42;;;;;;;27.73;11.77;;;3.70;99.90;;;;;;5046742;28;20192;-62
2022/01/06 08:56:10;;;;;;;43.87;17.90;;;3.70;99.90;;;;;;5047529;28;20710;-62
2022/01/06 08:58:38;;;;;;;32.70;11.63;;;3.70;99.90;;;;;;5047885;28;20205;-62
2022/01/06 09:01:07;;;;;;;25.73;10.70;;;3.70;99.90;;;;;;5044375;28;20209;-60
2022/01/06 09:03:35;;;;;;;29.63;8.43;;;3.80;99.90;;;;;;5044518;28;21520;-62
2022/01/06 09:06:04;;;;;;;23.83;7.40;;;3.80;99.90;;;;;;5044718;28;20606;-61
2022/01/06 09:08:34;;;;;;;20.40;7.50;;;3.80;99.90;;;;;;5047017;28;20203;-62
2022/01/06 09:11:02;;;;;;;25.63;6.80;;;3.80;99.90;;;;;;5048253;28;20197;-62
2022/01/06 09:13:31;;;;;;;21.27;6.87;;;3.80;99.90;;;;;;5046069;28;20648;-62
2022/01/06 09:16:07;;;;;;;22.27;7.50;;;3.80;99.90;;;;;;5040290;28;20679;-62
2022/01/06 09:18:36;;;;;;;82.97;33.83;;;3.80;99.90;;;;;;5045746;28;20192;-61
2022/01/06 09:21:05;;;;;;;29.73;8.83;;;3.90;99.90;;;;;;5042268;28;20250;-62
2022/01/06 09:23:35;;;;;;;29.30;11.93;;;3.90;99.90;;;;;;5041056;28;20721;-62
2022/01/06 09:26:03;;;;;;;25.53;8.03;;;3.90;99.90;;;;;;5045274;28;20188;-62
2022/01/06 09:28:34;;;;;;;28.47;10.07;;;4.00;99.90;;;;;;5046206;28;20213;-62
2022/01/06 09:31:03;;;;;;;30.57;11.77;;;4.10;99.90;;;;;;5038869;28;20255;-62
2022/01/06 09:33:31;;;;;;;25.93;7.80;;;4.20;99.90;;;;;;5045968;28;20197;-62
2022/01/06 09:35:59;;;;;;;24.87;8.80;;;4.20;99.90;;;;;;5048065;28;20232;-62
2022/01/06 09:38:28;;;;;;;20.90;7.10;;;4.30;99.90;;;;;;5044255;28;20733;-61
2022/01/06 09:41:00;;;;;;;21.70;7.83;;;4.40;99.90;;;;;;5049635;28;20618;-62
2022/01/06 09:43:30;;;;;;;30.37;8.40;;;4.50;99.90;;;;;;5045766;28;20309;-62
2022/01/06 09:46:03;;;;;;;29.20;7.73;;;4.70;99.90;;;;;;5046887;28;20280;-62
2022/01/06 09:48:32;;;;;;;22.90;8.83;;;4.80;99.90;;;;;;5049772;28;20643;-62
2022/01/06 09:51:00;;;;;;;23.77;7.47;;;4.80;99.90;;;;;;5047049;28;20217;-62
2022/01/06 09:53:29;;;;;;;22.17;6.50;;;4.70;99.90;;;;;;5050216;28;20213;-61
2022/01/06 09:55:58;;;;;;;17.10;7.30;;;4.60;99.90;;;;;;5046087;28;20228;-62
2022/01/06 09:58:29;;;;;;;25.83;7.83;;;4.70;99.90;;;;;;5042392;28;20231;-61
2022/01/06 10:00:58;;;;;;;25.97;7.57;;;4.80;99.90;;;;;;5047181;28;20680;-62
2022/01/06 10:03:35;;;;;;;28.67;7.40;;;4.80;99.90;;;;;;5048749;28;20270;-62
2022/01/06 10:06:14;;;;;;;13.37;6.30;;;5.00;99.90;;;;;;5029008;28;20866;-62
2022/01/06 10:08:50;;;;;;;26.77;6.90;;;5.10;99.90;;;;;;5045866;28;20258;-62
2022/01/06 10:11:21;;;;;;;17.60;6.83;;;5.20;99.90;;;;;;5043914;28;20271;-62
2022/01/06 10:13:59;;;;;;;18.60;7.40;;;5.30;99.90;;;;;;5046472;28;20224;-62
2022/01/06 10:16:30;;;;;;;18.33;5.93;;;5.50;99.90;;;;;;5043017;28;20259;-61
2022/01/06 10:19:04;;;;;;;19.37;6.70;;;5.60;99.90;;;;;;5046331;28;20193;-61
2022/01/06 10:21:36;;;;;;;19.07;7.47;;;5.60;99.90;;;;;;5042457;28;20616;-62
2022/01/06 10:24:10;;;;;;;28.00;6.63;;;5.70;99.90;;;;;;5048835;28;20204;-61
2022/01/06 10:26:52;;;;;;;20.37;5.90;;;5.70;99.90;;;;;;5047728;28;20842;-61
2022/01/06 10:29:23;;;;;;;19.83;6.50;;;5.80;99.90;;;;;;5046863;28;20276;-62
2022/01/06 10:31:52;;;;;;;50.10;20.17;;;5.90;99.90;;;;;;5048803;28;20235;-62
2022/01/06 10:34:20;;;;;;;33.13;9.73;;;5.90;99.90;;;;;;5049170;28;20725;-62
2022/01/06 10:36:49;;;;;;;72.93;24.17;;;6.00;99.90;;;;;;5044556;28;20213;-62
2022/01/06 10:39:17;;;;;;;48.37;19.07;;;6.00;99.90;;;;;;5047461;28;20688;-62
2022/01/06 10:41:47;;;;;;;19.03;7.63;;;6.10;99.90;;;;;;5065599;28;20224;-62
2022/01/06 10:44:15;;;;;;;12.77;6.13;;;6.20;99.90;;;;;;5048173;28;20203;-62
2022/01/06 10:46:45;;;;;;;22.53;6.60;;;6.20;99.90;;;;;;5047167;28;20185;-62
2022/01/06 10:49:15;;;;;;;22.27;7.63;;;6.30;99.90;;;;;;5044964;28;20180;-62
2022/01/06 10:51:46;;;;;;;23.97;10.97;;;6.30;99.90;;;;;;5046429;28;20216;-62
2022/01/06 10:54:17;;;;;;;21.57;9.20;;;6.40;99.90;;;;;;5042427;28;20270;-62
2022/01/06 10:56:58;;;;;;;24.13;8.10;;;6.40;99.90;;;;;;5044995;28;20267;-62
2022/01/06 10:59:29;;;;;;;22.97;7.57;;;6.50;99.90;;;;;;5046962;28;20290;-62
2022/01/06 11:01:57;;;;;;;26.87;6.60;;;6.60;99.90;;;;;;5044655;28;20954;-62
2022/01/06 11:04:27;;;;;;;18.57;6.30;;;6.70;99.90;;;;;;5027492;28;20188;-63
2022/01/06 11:06:55;;;;;;;23.10;8.20;;;6.80;99.90;;;;;;5047682;28;20284;-62
2022/01/06 11:09:25;;;;;;;27.37;12.20;;;6.90;99.90;;;;;;5046983;28;20200;-62
2022/01/06 11:14:44;;;;;;;30.37;11.83;;;7.10;99.90;;;;;;5044929;28;20220;-62
2022/01/06 11:17:13;;;;;;;24.70;8.97;;;7.30;99.90;;;;;;5045736;28;20315;-63
2022/01/06 11:19:41;;;;;;;22.67;9.53;;;7.20;99.90;;;;;;5043705;28;20272;-62
2022/01/06 11:22:13;;;;;;;20.67;6.20;;;7.20;99.90;;;;;;5039362;28;20243;-62
2022/01/06 11:24:53;;;;;;;15.83;6.63;;;7.30;99.90;;;;;;5037267;28;20294;-62
2022/01/06 11:27:32;;;;;;;22.63;9.50;;;7.30;99.90;;;;;;5042729;28;20223;-62
2022/01/06 11:30:14;;;;;;;31.70;14.73;;;7.40;99.90;;;;;;5047608;28;20200;-62
2022/01/06 11:32:45;;;;;;;19.43;7.53;;;7.50;99.90;;;;;;5046007;28;20189;-62
2022/01/06 11:35:19;;;;;;;17.93;6.97;;;7.50;99.90;;;;;;5044488;28;20236;-62
2022/01/06 11:37:49;;;;;;;22.97;6.57;;;7.60;99.90;;;;;;5045067;28;20196;-62
2022/01/06 11:40:31;;;;;;;22.27;6.60;;;7.70;99.90;;;;;;5023497;28;20291;-62
2022/01/06 11:43:00;;;;;;;14.07;5.93;;;7.70;99.90;;;;;;5045012;28;20238;-62
2022/01/06 11:45:30;;;;;;;18.73;7.57;;;7.70;99.90;;;;;;5045899;28;20232;-62
2022/01/06 11:48:03;;;;;;;23.57;6.87;;;7.60;99.90;;;;;;5038956;28;20787;-62
2022/01/06 11:50:37;;;;;;;20.77;6.30;;;7.50;99.90;;;;;;5041749;28;20216;-62
2022/01/06 11:53:07;;;;;;;19.93;7.07;;;7.40;99.90;;;;;;5043290;28;20201;-62
2022/01/06 11:55:38;;;;;;;27.63;6.37;;;7.50;99.90;;;;;;5041054;28;20216;-62
2022/01/06 11:58:12;;;;;;;18.77;7.20;;;7.40;99.90;;;;;;5041794;28;20255;-63
2022/01/06 12:00:54;;;;;;;23.40;7.13;;;7.50;99.90;;;;;;5045191;28;20270;-62
2022/01/06 12:03:22;;;;;;;18.77;7.03;;;7.60;99.90;;;;;;5039480;28;20232;-63
2022/01/06 12:05:53;;;;;;;24.43;7.23;;;7.70;99.90;;;;;;5029541;28;20189;-62
2022/01/06 12:08:36;;;;;;;17.37;6.30;;;7.60;99.90;;;;;;5036395;28;20191;-62
2022/01/06 12:11:05;;;;;;;22.47;6.40;;;7.60;99.90;;;;;;5044600;28;20184;-62
2022/01/06 12:13:44;;;;;;;18.30;6.23;;;7.60;99.90;;;;;;5044737;28;20884;-62
2022/01/06 12:16:24;;;;;;;47.53;19.70;;;7.60;99.90;;;;;;5042879;28;20770;-63
2022/01/06 12:18:53;;;;;;;111.63;48.00;;;7.70;99.90;;;;;;5048060;28;20291;-62
2022/01/06 12:21:23;;;;;;;24.80;10.57;;;7.80;99.90;;;;;;5050322;28;20284;-62
2022/01/06 12:24:01;;;;;;;15.27;8.27;;;8.00;99.90;;;;;;5048355;28;20640;-63
2022/01/06 12:26:31;;;;;;;28.60;7.30;;;8.10;99.90;;;;;;5049433;28;20679;-62
2022/01/06 12:28:59;;;;;;;14.87;7.40;;;8.20;99.90;;;;;;5046246;28;20200;-62
2022/01/06 12:31:31;;;;;;;21.03;6.17;;;8.30;99.90;;;;;;5047873;28;20196;-63
2022/01/06 12:34:02;;;;;;;14.17;5.47;;;8.60;99.90;;;;;;5065075;28;20225;-62
2022/01/06 12:36:34;;;;;;;11.73;4.50;;;8.80;99.90;;;;;;5048803;28;20251;-63
2022/01/06 12:39:08;;;;;;;14.57;5.50;;;8.70;99.90;;;;;;5048189;28;20714;-62
2022/01/06 12:41:37;;;;;;;16.70;5.30;;;8.60;99.90;;;;;;5045521;28;20205;-63
2022/01/06 12:44:06;;;;;;;16.77;5.37;;;8.50;99.90;;;;;;5046916;28;20204;-63
2022/01/06 12:46:41;;;;;;;14.33;4.50;;;8.40;99.90;;;;;;5049237;28;20654;-63
2022/01/06 12:49:11;;;;;;;19.90;5.57;;;8.20;99.90;;;;;;5045319;28;20207;-63
2022/01/06 12:51:42;;;;;;;15.10;4.73;;;8.20;99.90;;;;;;5046029;28;20228;-62
2022/01/06 12:54:15;;;;;;;13.53;4.30;;;8.10;99.90;;;;;;5048092;28;20259;-62
2022/01/06 12:56:46;;;;;;;16.97;4.83;;;7.90;99.90;;;;;;5051284;28;20328;-62
2022/01/06 12:59:17;;;;;;;17.47;4.47;;;7.60;99.90;;;;;;5046914;28;20192;-63
2022/01/06 13:01:53;;;;;;;19.00;4.20;;;7.20;99.90;;;;;;5050660;28;20201;-62
2022/01/06 13:04:26;;;;;;;16.37;4.00;;;6.90;99.90;;;;;;5044260;28;20278;-62
2022/01/06 13:06:56;;;;;;;18.57;4.37;;;6.70;99.90;;;;;;5051344;28;20207;-63
2022/01/06 13:09:26;;;;;;;17.30;4.50;;;6.70;99.90;;;;;;5049122;28;20292;-62